KSDF Airport Diagram

We have created a template for each of the higher traffic airports in the vZID airspace. They include KCMH, KCRW, KCVG, KDAY, KIND, KLEX and KSDF. You wil find usefull information including the airport diagram, weather, and specific airport procedures.

KSDF Weather

[Source: ADDS]
METAR
KSDF 200656Z 05011KT 3SM RA BR FEW010 OVC036 01/M01 A3012 RMK AO2 PRESFR SLP204 P0008 T00111006 =
KSDF 200534Z 2006/2112 07011KT 6SM -RA BR SCT025 OVC060 TEMPO 2006/2008 4SM -TSRA BR BKN015CB FM200800 08012KT 5SM -RA BR BKN012 TEMPO 2009/2013 2SM -RA BR BKN008 FM201300 11011KT 6SM -RA BR BKN008 OVC014 FM201800 18013KT 5SM -RA BR BKN008 OVC014 FM202300 26012KT P6SM SCT008 OVC015
TAF
KSDF 200534Z 2006/2112 07011KT 6SM -RA BR SCT025 OVC060 TEMPO 2006/2008 4SM -TSRA BR BKN015CB FM200800 08012KT 5SM -RA BR BKN012 TEMPO 2009/2013 2SM -RA BR BKN008 FM201300 11011KT 6SM -RA BR BKN008 OVC014 FM201800 18013KT 5SM -RA BR BKN008 OVC014 FM202300 26012KT P6SM SCT008 OVC015 =

KSDF Operations

Calm Wind Configuration is runways 17L and 17R.

Runway 17L typically departs north and east.

Runway 17R typicall departs south and west.

 

JSN Epic template designed by JoomlaShine.com